sensor_id;sensor_type;location;lat;lon;timestamp;P1;durP1;ratioP1;P2;durP2;ratioP2
17171;SDS011;8701;50.150;8.756;2023-11-18T00:02:06;13.10;;;9.27;;
17171;SDS011;8701;50.150;8.756;2023-11-18T00:06:08;20.27;;;8.50;;
17171;SDS011;8701;50.150;8.756;2023-11-18T00:10:10;12.20;;;8.60;;
17171;SDS011;8701;50.150;8.756;2023-11-18T00:14:14;13.53;;;8.97;;
17171;SDS011;8701;50.150;8.756;2023-11-18T00:18:16;14.27;;;8.23;;
17171;SDS011;8701;50.150;8.756;2023-11-18T00:22:19;19.23;;;9.37;;
17171;SDS011;8701;50.150;8.756;2023-11-18T00:26:21;12.07;;;7.83;;
17171;SDS011;8701;50.150;8.756;2023-11-18T00:30:32;14.50;;;8.63;;
17171;SDS011;8701;50.150;8.756;2023-11-18T00:34:35;11.27;;;7.63;;
17171;SDS011;8701;50.150;8.756;2023-11-18T00:38:37;12.47;;;7.93;;
17171;SDS011;8701;50.150;8.756;2023-11-18T00:42:40;10.20;;;7.57;;
17171;SDS011;8701;50.150;8.756;2023-11-18T00:46:43;16.03;;;9.27;;
17171;SDS011;8701;50.150;8.756;2023-11-18T00:50:46;12.73;;;8.50;;
17171;SDS011;8701;50.150;8.756;2023-11-18T00:54:49;10.33;;;7.00;;
17171;SDS011;8701;50.150;8.756;2023-11-18T00:58:51;11.70;;;7.20;;
17171;SDS011;8701;50.150;8.756;2023-11-18T01:02:55;10.63;;;7.13;;
17171;SDS011;8701;50.150;8.756;2023-11-18T01:06:57;11.17;;;7.40;;
17171;SDS011;8701;50.150;8.756;2023-11-18T01:10:59;11.30;;;8.10;;
17171;SDS011;8701;50.150;8.756;2023-11-18T01:15:02;11.17;;;7.83;;
17171;SDS011;8701;50.150;8.756;2023-11-18T01:19:07;11.23;;;7.90;;
17171;SDS011;8701;50.150;8.756;2023-11-18T01:23:09;10.97;;;7.53;;
17171;SDS011;8701;50.150;8.756;2023-11-18T01:27:12;13.27;;;8.37;;
17171;SDS011;8701;50.150;8.756;2023-11-18T01:31:14;15.20;;;8.20;;
17171;SDS011;8701;50.150;8.756;2023-11-18T01:35:19;11.40;;;8.20;;
17171;SDS011;8701;50.150;8.756;2023-11-18T01:39:22;13.73;;;8.10;;
17171;SDS011;8701;50.150;8.756;2023-11-18T01:43:25;9.20;;;6.50;;
17171;SDS011;8701;50.150;8.756;2023-11-18T01:47:30;11.23;;;7.13;;
17171;SDS011;8701;50.150;8.756;2023-11-18T01:51:35;10.23;;;6.80;;
17171;SDS011;8701;50.150;8.756;2023-11-18T01:55:37;10.10;;;7.40;;
17171;SDS011;8701;50.150;8.756;2023-11-18T01:59:40;10.07;;;6.80;;
17171;SDS011;8701;50.150;8.756;2023-11-18T02:03:43;11.97;;;7.30;;
17171;SDS011;8701;50.150;8.756;2023-11-18T02:07:49;13.40;;;7.50;;
17171;SDS011;8701;50.150;8.756;2023-11-18T02:11:52;11.90;;;7.57;;
17171;SDS011;8701;50.150;8.756;2023-11-18T02:15:59;12.53;;;7.90;;
17171;SDS011;8701;50.150;8.756;2023-11-18T02:20:03;10.80;;;7.30;;
17171;SDS011;8701;50.150;8.756;2023-11-18T02:24:25;10.23;;;6.63;;
17171;SDS011;8701;50.150;8.756;2023-11-18T02:28:33;10.70;;;6.97;;
17171;SDS011;8701;50.150;8.756;2023-11-18T02:32:37;8.40;;;6.60;;
17171;SDS011;8701;50.150;8.756;2023-11-18T02:36:46;10.80;;;6.53;;
17171;SDS011;8701;50.150;8.756;2023-11-18T02:40:51;8.93;;;6.93;;
17171;SDS011;8701;50.150;8.756;2023-11-18T02:44:59;8.50;;;6.13;;
17171;SDS011;8701;50.150;8.756;2023-11-18T02:49:03;8.50;;;6.17;;
17171;SDS011;8701;50.150;8.756;2023-11-18T02:53:05;8.53;;;6.20;;
17171;SDS011;8701;50.150;8.756;2023-11-18T02:57:10;10.53;;;6.30;;
17171;SDS011;8701;50.150;8.756;2023-11-18T03:01:16;8.83;;;6.30;;
17171;SDS011;8701;50.150;8.756;2023-11-18T03:05:20;17.57;;;6.53;;
17171;SDS011;8701;50.150;8.756;2023-11-18T03:09:22;9.63;;;6.00;;
17171;SDS011;8701;50.150;8.756;2023-11-18T03:13:28;11.00;;;6.40;;
17171;SDS011;8701;50.150;8.756;2023-11-18T03:17:31;9.47;;;6.47;;
17171;SDS011;8701;50.150;8.756;2023-11-18T03:21:34;9.50;;;6.53;;
17171;SDS011;8701;50.150;8.756;2023-11-18T03:25:37;10.50;;;6.90;;
17171;SDS011;8701;50.150;8.756;2023-11-18T03:29:40;12.40;;;6.17;;
17171;SDS011;8701;50.150;8.756;2023-11-18T03:33:45;7.37;;;5.40;;
17171;SDS011;8701;50.150;8.756;2023-11-18T03:37:47;6.23;;;4.97;;
17171;SDS011;8701;50.150;8.756;2023-11-18T03:41:49;8.10;;;5.40;;
17171;SDS011;8701;50.150;8.756;2023-11-18T03:45:52;6.63;;;5.33;;
17171;SDS011;8701;50.150;8.756;2023-11-18T03:49:58;9.77;;;6.30;;
17171;SDS011;8701;50.150;8.756;2023-11-18T03:54:00;7.63;;;5.90;;
17171;SDS011;8701;50.150;8.756;2023-11-18T03:58:02;6.60;;;5.17;;
17171;SDS011;8701;50.150;8.756;2023-11-18T04:02:05;6.40;;;4.77;;
17171;SDS011;8701;50.150;8.756;2023-11-18T04:06:08;8.17;;;5.50;;
17171;SDS011;8701;50.150;8.756;2023-11-18T04:10:10;8.70;;;4.80;;
17171;SDS011;8701;50.150;8.756;2023-11-18T04:14:13;7.27;;;6.17;;
17171;SDS011;8701;50.150;8.756;2023-11-18T04:18:16;7.70;;;5.03;;
17171;SDS011;8701;50.150;8.756;2023-11-18T04:22:19;15.63;;;5.83;;
17171;SDS011;8701;50.150;8.756;2023-11-18T04:26:22;7.00;;;4.87;;
17171;SDS011;8701;50.150;8.756;2023-11-18T04:30:25;7.00;;;5.50;;
17171;SDS011;8701;50.150;8.756;2023-11-18T04:34:27;7.20;;;5.70;;
17171;SDS011;8701;50.150;8.756;2023-11-18T04:38:30;7.80;;;6.10;;
17171;SDS011;8701;50.150;8.756;2023-11-18T04:42:34;10.87;;;6.60;;
17171;SDS011;8701;50.150;8.756;2023-11-18T04:46:39;8.90;;;5.80;;
17171;SDS011;8701;50.150;8.756;2023-11-18T04:50:41;9.20;;;6.40;;
17171;SDS011;8701;50.150;8.756;2023-11-18T04:54:45;25.47;;;7.37;;
17171;SDS011;8701;50.150;8.756;2023-11-18T04:58:49;12.40;;;8.13;;
17171;SDS011;8701;50.150;8.756;2023-11-18T05:02:51;10.03;;;6.17;;
17171;SDS011;8701;50.150;8.756;2023-11-18T05:06:53;14.70;;;7.00;;
17171;SDS011;8701;50.150;8.756;2023-11-18T05:10:57;8.17;;;5.97;;
17171;SDS011;8701;50.150;8.756;2023-11-18T05:14:59;10.37;;;7.00;;
17171;SDS011;8701;50.150;8.756;2023-11-18T05:19:01;11.60;;;6.90;;
17171;SDS011;8701;50.150;8.756;2023-11-18T05:23:04;8.70;;;6.43;;
17171;SDS011;8701;50.150;8.756;2023-11-18T05:27:07;9.10;;;6.17;;
17171;SDS011;8701;50.150;8.756;2023-11-18T05:31:09;11.80;;;6.00;;
17171;SDS011;8701;50.150;8.756;2023-11-18T05:35:12;15.50;;;7.70;;
17171;SDS011;8701;50.150;8.756;2023-11-18T05:39:14;10.90;;;6.93;;
17171;SDS011;8701;50.150;8.756;2023-11-18T05:43:18;11.17;;;6.73;;
17171;SDS011;8701;50.150;8.756;2023-11-18T05:47:21;10.60;;;6.00;;
17171;SDS011;8701;50.150;8.756;2023-11-18T05:51:24;13.30;;;7.43;;
17171;SDS011;8701;50.150;8.756;2023-11-18T05:55:29;12.70;;;7.13;;
17171;SDS011;8701;50.150;8.756;2023-11-18T05:59:33;13.47;;;7.30;;
17171;SDS011;8701;50.150;8.756;2023-11-18T06:03:35;13.80;;;8.30;;
17171;SDS011;8701;50.150;8.756;2023-11-18T06:07:39;13.10;;;7.30;;
17171;SDS011;8701;50.150;8.756;2023-11-18T06:11:43;14.97;;;7.20;;
17171;SDS011;8701;50.150;8.756;2023-11-18T06:15:47;14.63;;;7.67;;
17171;SDS011;8701;50.150;8.756;2023-11-18T06:19:50;17.53;;;7.67;;
17171;SDS011;8701;50.150;8.756;2023-11-18T06:23:52;20.60;;;7.90;;
17171;SDS011;8701;50.150;8.756;2023-11-18T06:27:55;15.93;;;7.90;;
17171;SDS011;8701;50.150;8.756;2023-11-18T06:32:00;16.50;;;8.67;;
17171;SDS011;8701;50.150;8.756;2023-11-18T06:36:03;14.83;;;7.70;;
17171;SDS011;8701;50.150;8.756;2023-11-18T06:40:07;25.73;;;10.10;;
17171;SDS011;8701;50.150;8.756;2023-11-18T06:44:16;22.67;;;8.50;;
17171;SDS011;8701;50.150;8.756;2023-11-18T06:48:25;16.03;;;7.37;;
17171;SDS011;8701;50.150;8.756;2023-11-18T06:52:27;19.47;;;8.73;;
17171;SDS011;8701;50.150;8.756;2023-11-18T06:56:29;20.60;;;8.97;;
17171;SDS011;8701;50.150;8.756;2023-11-18T07:00:32;20.13;;;9.20;;
17171;SDS011;8701;50.150;8.756;2023-11-18T07:04:35;18.93;;;8.10;;
17171;SDS011;8701;50.150;8.756;2023-11-18T07:08:39;17.20;;;8.20;;
17171;SDS011;8701;50.150;8.756;2023-11-18T07:12:41;21.20;;;8.70;;
17171;SDS011;8701;50.150;8.756;2023-11-18T07:16:43;15.10;;;7.23;;
17171;SDS011;8701;50.150;8.756;2023-11-18T07:20:47;19.30;;;8.00;;
17171;SDS011;8701;50.150;8.756;2023-11-18T07:24:49;24.37;;;8.73;;
17171;SDS011;8701;50.150;8.756;2023-11-18T07:28:51;15.83;;;7.13;;
17171;SDS011;8701;50.150;8.756;2023-11-18T07:32:54;13.00;;;7.40;;
17171;SDS011;8701;50.150;8.756;2023-11-18T07:37:01;19.10;;;8.23;;
17171;SDS011;8701;50.150;8.756;2023-11-18T07:41:04;15.37;;;8.10;;
17171;SDS011;8701;50.150;8.756;2023-11-18T07:45:08;17.60;;;8.47;;
17171;SDS011;8701;50.150;8.756;2023-11-18T07:49:17;13.23;;;6.83;;
17171;SDS011;8701;50.150;8.756;2023-11-18T07:53:22;16.10;;;7.43;;
17171;SDS011;8701;50.150;8.756;2023-11-18T07:57:25;16.10;;;8.03;;
17171;SDS011;8701;50.150;8.756;2023-11-18T08:01:27;23.80;;;8.87;;
17171;SDS011;8701;50.150;8.756;2023-11-18T08:05:29;20.93;;;7.40;;
17171;SDS011;8701;50.150;8.756;2023-11-18T08:09:35;16.80;;;7.47;;
17171;SDS011;8701;50.150;8.756;2023-11-18T08:13:39;17.97;;;8.23;;
17171;SDS011;8701;50.150;8.756;2023-11-18T08:17:41;28.70;;;8.83;;
17171;SDS011;8701;50.150;8.756;2023-11-18T08:21:44;19.77;;;8.47;;
17171;SDS011;8701;50.150;8.756;2023-11-18T08:25:49;18.67;;;8.37;;
17171;SDS011;8701;50.150;8.756;2023-11-18T08:29:53;15.70;;;7.87;;
17171;SDS011;8701;50.150;8.756;2023-11-18T08:33:55;19.83;;;8.00;;
17171;SDS011;8701;50.150;8.756;2023-11-18T08:37:57;16.30;;;8.57;;
17171;SDS011;8701;50.150;8.756;2023-11-18T08:42:01;20.87;;;9.60;;
17171;SDS011;8701;50.150;8.756;2023-11-18T08:46:03;22.00;;;9.00;;
17171;SDS011;8701;50.150;8.756;2023-11-18T08:50:07;19.37;;;7.47;;
17171;SDS011;8701;50.150;8.756;2023-11-18T08:54:12;21.10;;;8.17;;
17171;SDS011;8701;50.150;8.756;2023-11-18T08:58:27;17.43;;;8.83;;
17171;SDS011;8701;50.150;8.756;2023-11-18T09:02:34;20.87;;;7.93;;
17171;SDS011;8701;50.150;8.756;2023-11-18T09:06:37;24.87;;;8.67;;
17171;SDS011;8701;50.150;8.756;2023-11-18T09:10:40;22.67;;;9.70;;
17171;SDS011;8701;50.150;8.756;2023-11-18T09:14:43;25.00;;;8.87;;
17171;SDS011;8701;50.150;8.756;2023-11-18T09:18:48;24.13;;;9.40;;
17171;SDS011;8701;50.150;8.756;2023-11-18T09:22:51;20.07;;;10.10;;
17171;SDS011;8701;50.150;8.756;2023-11-18T09:26:56;30.47;;;9.50;;
17171;SDS011;8701;50.150;8.756;2023-11-18T09:30:59;25.60;;;9.03;;
17171;SDS011;8701;50.150;8.756;2023-11-18T09:35:03;20.80;;;9.70;;
17171;SDS011;8701;50.150;8.756;2023-11-18T09:39:09;21.23;;;8.57;;
17171;SDS011;8701;50.150;8.756;2023-11-18T09:43:29;21.77;;;10.10;;
17171;SDS011;8701;50.150;8.756;2023-11-18T09:47:36;25.03;;;9.63;;
17171;SDS011;8701;50.150;8.756;2023-11-18T09:51:40;22.70;;;10.00;;
17171;SDS011;8701;50.150;8.756;2023-11-18T09:55:49;24.00;;;9.90;;
17171;SDS011;8701;50.150;8.756;2023-11-18T10:00:01;25.00;;;11.67;;
17171;SDS011;8701;50.150;8.756;2023-11-18T10:04:21;24.87;;;10.17;;
17171;SDS011;8701;50.150;8.756;2023-11-18T10:08:28;25.70;;;11.53;;
17171;SDS011;8701;50.150;8.756;2023-11-18T10:12:31;26.00;;;10.93;;
17171;SDS011;8701;50.150;8.756;2023-11-18T10:16:38;25.93;;;11.60;;
17171;SDS011;8701;50.150;8.756;2023-11-18T10:20:45;35.93;;;11.57;;
17171;SDS011;8701;50.150;8.756;2023-11-18T10:24:48;21.13;;;10.30;;
17171;SDS011;8701;50.150;8.756;2023-11-18T10:28:55;25.40;;;9.77;;
17171;SDS011;8701;50.150;8.756;2023-11-18T10:33:07;19.50;;;10.10;;
17171;SDS011;8701;50.150;8.756;2023-11-18T10:37:13;22.83;;;10.63;;
17171;SDS011;8701;50.150;8.756;2023-11-18T10:41:17;25.37;;;11.30;;
17171;SDS011;8701;50.150;8.756;2023-11-18T10:45:23;28.97;;;11.93;;
17171;SDS011;8701;50.150;8.756;2023-11-18T10:49:27;23.17;;;10.57;;
17171;SDS011;8701;50.150;8.756;2023-11-18T10:53:38;21.77;;;10.90;;
17171;SDS011;8701;50.150;8.756;2023-11-18T10:57:43;21.30;;;10.43;;
17171;SDS011;8701;50.150;8.756;2023-11-18T11:01:46;23.40;;;11.60;;
17171;SDS011;8701;50.150;8.756;2023-11-18T11:05:49;27.33;;;12.70;;
17171;SDS011;8701;50.150;8.756;2023-11-18T11:09:53;25.07;;;11.60;;
17171;SDS011;8701;50.150;8.756;2023-11-18T11:13:57;22.33;;;11.13;;
17171;SDS011;8701;50.150;8.756;2023-11-18T11:18:03;27.23;;;12.87;;
17171;SDS011;8701;50.150;8.756;2023-11-18T11:22:10;23.90;;;12.37;;
17171;SDS011;8701;50.150;8.756;2023-11-18T11:26:26;22.70;;;12.87;;
17171;SDS011;8701;50.150;8.756;2023-11-18T11:30:37;23.90;;;11.90;;
17171;SDS011;8701;50.150;8.756;2023-11-18T11:34:51;21.03;;;11.87;;
17171;SDS011;8701;50.150;8.756;2023-11-18T11:38:57;15.90;;;11.00;;
17171;SDS011;8701;50.150;8.756;2023-11-18T11:43:03;21.70;;;11.67;;
17171;SDS011;8701;50.150;8.756;2023-11-18T11:47:11;16.33;;;10.80;;
17171;SDS011;8701;50.150;8.756;2023-11-18T11:51:19;16.27;;;10.50;;
17171;SDS011;8701;50.150;8.756;2023-11-18T11:55:29;18.90;;;12.67;;
17171;SDS011;8701;50.150;8.756;2023-11-18T12:04:16;19.20;;;11.43;;
17171;SDS011;8701;50.150;8.756;2023-11-18T12:08:23;22.80;;;12.20;;
17171;SDS011;8701;50.150;8.756;2023-11-18T12:12:26;22.77;;;12.40;;
17171;SDS011;8701;50.150;8.756;2023-11-18T12:21:08;19.83;;;12.53;;
17171;SDS011;8701;50.150;8.756;2023-11-18T12:29:40;19.77;;;11.63;;
17171;SDS011;8701;50.150;8.756;2023-11-18T12:34:04;19.97;;;12.27;;
17171;SDS011;8701;50.150;8.756;2023-11-18T12:42:56;21.20;;;13.03;;
17171;SDS011;8701;50.150;8.756;2023-11-18T12:47:01;21.40;;;11.97;;
17171;SDS011;8701;50.150;8.756;2023-11-18T12:51:11;21.23;;;11.87;;
17171;SDS011;8701;50.150;8.756;2023-11-18T12:55:20;17.03;;;11.40;;
17171;SDS011;8701;50.150;8.756;2023-11-18T12:59:22;17.83;;;10.80;;
17171;SDS011;8701;50.150;8.756;2023-11-18T13:03:24;22.30;;;11.43;;
17171;SDS011;8701;50.150;8.756;2023-11-18T13:07:28;17.27;;;10.87;;
17171;SDS011;8701;50.150;8.756;2023-11-18T13:11:31;18.67;;;10.90;;
17171;SDS011;8701;50.150;8.756;2023-11-18T13:15:34;14.70;;;9.20;;
17171;SDS011;8701;50.150;8.756;2023-11-18T13:19:37;19.23;;;9.90;;
17171;SDS011;8701;50.150;8.756;2023-11-18T13:23:42;12.90;;;9.20;;
17171;SDS011;8701;50.150;8.756;2023-11-18T13:27:48;13.20;;;9.70;;
17171;SDS011;8701;50.150;8.756;2023-11-18T13:31:51;15.30;;;9.43;;
17171;SDS011;8701;50.150;8.756;2023-11-18T13:35:54;15.37;;;9.40;;
17171;SDS011;8701;50.150;8.756;2023-11-18T13:39:57;15.80;;;10.30;;
17171;SDS011;8701;50.150;8.756;2023-11-18T13:44:00;22.50;;;11.60;;
17171;SDS011;8701;50.150;8.756;2023-11-18T13:48:04;16.33;;;11.03;;
17171;SDS011;8701;50.150;8.756;2023-11-18T13:52:07;23.30;;;10.00;;
17171;SDS011;8701;50.150;8.756;2023-11-18T13:56:13;16.90;;;10.80;;
17171;SDS011;8701;50.150;8.756;2023-11-18T14:00:17;18.80;;;9.60;;
17171;SDS011;8701;50.150;8.756;2023-11-18T14:04:23;19.03;;;12.03;;
17171;SDS011;8701;50.150;8.756;2023-11-18T14:08:26;20.30;;;12.70;;
17171;SDS011;8701;50.150;8.756;2023-11-18T14:12:30;20.03;;;12.20;;
17171;SDS011;8701;50.150;8.756;2023-11-18T14:16:33;24.80;;;13.47;;
17171;SDS011;8701;50.150;8.756;2023-11-18T14:20:35;20.70;;;12.50;;
17171;SDS011;8701;50.150;8.756;2023-11-18T14:24:37;18.43;;;11.30;;
17171;SDS011;8701;50.150;8.756;2023-11-18T14:28:42;22.43;;;12.30;;
17171;SDS011;8701;50.150;8.756;2023-11-18T14:32:44;18.37;;;11.20;;
17171;SDS011;8701;50.150;8.756;2023-11-18T14:36:47;16.70;;;11.27;;
17171;SDS011;8701;50.150;8.756;2023-11-18T14:40:49;12.70;;;8.40;;
17171;SDS011;8701;50.150;8.756;2023-11-18T14:44:55;14.13;;;8.20;;
17171;SDS011;8701;50.150;8.756;2023-11-18T14:48:57;14.70;;;7.13;;
17171;SDS011;8701;50.150;8.756;2023-11-18T14:52:59;9.37;;;7.17;;
17171;SDS011;8701;50.150;8.756;2023-11-18T14:57:03;12.10;;;5.83;;
17171;SDS011;8701;50.150;8.756;2023-11-18T15:01:08;12.30;;;6.03;;
17171;SDS011;8701;50.150;8.756;2023-11-18T15:05:12;8.93;;;6.10;;
17171;SDS011;8701;50.150;8.756;2023-11-18T15:09:16;9.23;;;5.10;;
17171;SDS011;8701;50.150;8.756;2023-11-18T15:13:19;9.70;;;6.00;;
17171;SDS011;8701;50.150;8.756;2023-11-18T15:17:22;7.87;;;5.20;;
17171;SDS011;8701;50.150;8.756;2023-11-18T15:21:26;13.50;;;6.30;;
17171;SDS011;8701;50.150;8.756;2023-11-18T15:25:30;7.20;;;5.40;;
17171;SDS011;8701;50.150;8.756;2023-11-18T15:29:32;7.10;;;4.70;;
17171;SDS011;8701;50.150;8.756;2023-11-18T15:33:40;7.97;;;4.70;;
17171;SDS011;8701;50.150;8.756;2023-11-18T15:37:45;9.20;;;4.50;;
17171;SDS011;8701;50.150;8.756;2023-11-18T15:41:48;5.50;;;4.63;;
17171;SDS011;8701;50.150;8.756;2023-11-18T15:45:50;8.93;;;5.90;;
17171;SDS011;8701;50.150;8.756;2023-11-18T15:49:54;11.03;;;5.40;;
17171;SDS011;8701;50.150;8.756;2023-11-18T15:53:56;7.20;;;5.10;;
17171;SDS011;8701;50.150;8.756;2023-11-18T15:57:59;7.40;;;5.07;;
17171;SDS011;8701;50.150;8.756;2023-11-18T16:02:01;6.53;;;4.40;;
17171;SDS011;8701;50.150;8.756;2023-11-18T16:06:07;8.80;;;5.07;;
17171;SDS011;8701;50.150;8.756;2023-11-18T16:10:11;7.20;;;4.93;;
17171;SDS011;8701;50.150;8.756;2023-11-18T16:14:18;8.30;;;5.10;;
17171;SDS011;8701;50.150;8.756;2023-11-18T16:18:21;6.77;;;4.83;;
17171;SDS011;8701;50.150;8.756;2023-11-18T16:22:25;6.87;;;4.53;;
17171;SDS011;8701;50.150;8.756;2023-11-18T16:26:29;16.13;;;5.37;;
17171;SDS011;8701;50.150;8.756;2023-11-18T16:30:32;8.03;;;4.87;;
17171;SDS011;8701;50.150;8.756;2023-11-18T16:34:34;8.47;;;4.77;;
17171;SDS011;8701;50.150;8.756;2023-11-18T16:38:38;4.50;;;3.50;;
17171;SDS011;8701;50.150;8.756;2023-11-18T16:42:42;9.90;;;3.70;;
17171;SDS011;8701;50.150;8.756;2023-11-18T16:46:44;3.37;;;3.07;;
17171;SDS011;8701;50.150;8.756;2023-11-18T16:50:51;4.80;;;3.83;;
17171;SDS011;8701;50.150;8.756;2023-11-18T16:54:58;6.30;;;3.50;;
17171;SDS011;8701;50.150;8.756;2023-11-18T16:59:00;3.50;;;2.90;;
17171;SDS011;8701;50.150;8.756;2023-11-18T17:03:03;4.73;;;3.13;;
17171;SDS011;8701;50.150;8.756;2023-11-18T17:07:06;3.00;;;2.70;;
17171;SDS011;8701;50.150;8.756;2023-11-18T17:11:09;6.77;;;3.00;;
17171;SDS011;8701;50.150;8.756;2023-11-18T17:15:14;4.33;;;3.40;;
17171;SDS011;8701;50.150;8.756;2023-11-18T17:19:19;5.03;;;3.10;;
17171;SDS011;8701;50.150;8.756;2023-11-18T17:23:24;5.30;;;3.07;;
17171;SDS011;8701;50.150;8.756;2023-11-18T17:27:33;8.70;;;3.30;;
17171;SDS011;8701;50.150;8.756;2023-11-18T17:31:39;5.40;;;3.57;;
17171;SDS011;8701;50.150;8.756;2023-11-18T17:35:43;3.90;;;3.00;;
17171;SDS011;8701;50.150;8.756;2023-11-18T17:39:45;3.53;;;3.20;;
17171;SDS011;8701;50.150;8.756;2023-11-18T17:43:49;4.30;;;3.10;;
17171;SDS011;8701;50.150;8.756;2023-11-18T17:47:51;4.90;;;3.23;;
17171;SDS011;8701;50.150;8.756;2023-11-18T17:51:53;6.07;;;3.47;;
17171;SDS011;8701;50.150;8.756;2023-11-18T17:55:56;4.90;;;3.57;;
17171;SDS011;8701;50.150;8.756;2023-11-18T18:00:00;6.17;;;3.77;;
17171;SDS011;8701;50.150;8.756;2023-11-18T18:04:09;6.00;;;3.50;;
17171;SDS011;8701;50.150;8.756;2023-11-18T18:08:11;7.33;;;4.20;;
17171;SDS011;8701;50.150;8.756;2023-11-18T18:12:15;5.57;;;5.07;;
17171;SDS011;8701;50.150;8.756;2023-11-18T18:16:18;5.93;;;4.40;;
17171;SDS011;8701;50.150;8.756;2023-11-18T18:20:20;6.40;;;4.37;;
17171;SDS011;8701;50.150;8.756;2023-11-18T18:24:23;6.93;;;4.83;;
17171;SDS011;8701;50.150;8.756;2023-11-18T18:28:25;9.00;;;4.40;;
17171;SDS011;8701;50.150;8.756;2023-11-18T18:32:29;7.73;;;4.60;;
17171;SDS011;8701;50.150;8.756;2023-11-18T18:36:31;8.00;;;5.00;;
17171;SDS011;8701;50.150;8.756;2023-11-18T18:40:34;6.50;;;5.50;;
17171;SDS011;8701;50.150;8.756;2023-11-18T18:44:37;4.93;;;4.43;;
17171;SDS011;8701;50.150;8.756;2023-11-18T18:48:40;6.63;;;4.53;;
17171;SDS011;8701;50.150;8.756;2023-11-18T18:52:42;6.50;;;5.03;;
17171;SDS011;8701;50.150;8.756;2023-11-18T18:56:46;5.10;;;4.50;;
17171;SDS011;8701;50.150;8.756;2023-11-18T19:00:48;6.90;;;4.50;;
17171;SDS011;8701;50.150;8.756;2023-11-18T19:04:54;7.83;;;4.50;;
17171;SDS011;8701;50.150;8.756;2023-11-18T19:08:56;6.60;;;4.90;;
17171;SDS011;8701;50.150;8.756;2023-11-18T19:12:59;8.97;;;4.67;;
17171;SDS011;8701;50.150;8.756;2023-11-18T19:17:01;5.67;;;4.53;;
17171;SDS011;8701;50.150;8.756;2023-11-18T19:21:06;7.50;;;4.47;;
17171;SDS011;8701;50.150;8.756;2023-11-18T19:25:09;5.53;;;5.00;;
17171;SDS011;8701;50.150;8.756;2023-11-18T19:29:13;7.07;;;5.10;;
17171;SDS011;8701;50.150;8.756;2023-11-18T19:33:15;5.60;;;4.87;;
17171;SDS011;8701;50.150;8.756;2023-11-18T19:37:19;8.07;;;5.30;;
17171;SDS011;8701;50.150;8.756;2023-11-18T19:41:21;7.10;;;5.60;;
17171;SDS011;8701;50.150;8.756;2023-11-18T19:45:23;6.03;;;4.97;;
17171;SDS011;8701;50.150;8.756;2023-11-18T19:49:26;6.27;;;5.40;;
17171;SDS011;8701;50.150;8.756;2023-11-18T19:53:33;6.97;;;5.67;;
17171;SDS011;8701;50.150;8.756;2023-11-18T19:57:35;7.07;;;6.23;;
17171;SDS011;8701;50.150;8.756;2023-11-18T20:01:38;6.33;;;5.33;;
17171;SDS011;8701;50.150;8.756;2023-11-18T20:05:41;8.50;;;6.30;;
17171;SDS011;8701;50.150;8.756;2023-11-18T20:09:45;6.50;;;5.70;;
17171;SDS011;8701;50.150;8.756;2023-11-18T20:13:47;7.20;;;5.93;;
17171;SDS011;8701;50.150;8.756;2023-11-18T20:17:50;9.40;;;6.23;;
17171;SDS011;8701;50.150;8.756;2023-11-18T20:21:52;8.10;;;5.93;;
17171;SDS011;8701;50.150;8.756;2023-11-18T20:25:56;9.40;;;6.37;;
17171;SDS011;8701;50.150;8.756;2023-11-18T20:29:58;8.23;;;5.83;;
17171;SDS011;8701;50.150;8.756;2023-11-18T20:34:01;7.97;;;6.63;;
17171;SDS011;8701;50.150;8.756;2023-11-18T20:38:03;8.30;;;6.10;;
17171;SDS011;8701;50.150;8.756;2023-11-18T20:42:07;7.40;;;6.23;;
17171;SDS011;8701;50.150;8.756;2023-11-18T20:46:10;8.37;;;5.93;;
17171;SDS011;8701;50.150;8.756;2023-11-18T20:50:13;9.27;;;6.57;;
17171;SDS011;8701;50.150;8.756;2023-11-18T20:54:15;12.57;;;6.07;;
17171;SDS011;8701;50.150;8.756;2023-11-18T20:58:18;9.97;;;5.30;;
17171;SDS011;8701;50.150;8.756;2023-11-18T21:02:21;8.33;;;5.10;;
17171;SDS011;8701;50.150;8.756;2023-11-18T21:06:23;5.80;;;5.03;;
17171;SDS011;8701;50.150;8.756;2023-11-18T21:10:25;7.60;;;4.30;;
17171;SDS011;8701;50.150;8.756;2023-11-18T21:14:29;7.03;;;4.73;;
17171;SDS011;8701;50.150;8.756;2023-11-18T21:18:31;4.87;;;4.17;;
17171;SDS011;8701;50.150;8.756;2023-11-18T21:22:34;8.73;;;4.90;;
17171;SDS011;8701;50.150;8.756;2023-11-18T21:26:36;10.17;;;4.47;;
17171;SDS011;8701;50.150;8.756;2023-11-18T21:30:39;9.30;;;4.37;;
17171;SDS011;8701;50.150;8.756;2023-11-18T21:34:41;6.10;;;4.70;;
17171;SDS011;8701;50.150;8.756;2023-11-18T21:38:47;6.40;;;4.87;;
17171;SDS011;8701;50.150;8.756;2023-11-18T21:42:50;5.07;;;4.57;;
17171;SDS011;8701;50.150;8.756;2023-11-18T21:46:55;5.90;;;4.63;;
17171;SDS011;8701;50.150;8.756;2023-11-18T21:50:57;9.40;;;5.13;;
17171;SDS011;8701;50.150;8.756;2023-11-18T21:54:59;7.00;;;4.90;;
17171;SDS011;8701;50.150;8.756;2023-11-18T21:59:04;6.80;;;5.07;;
17171;SDS011;8701;50.150;8.756;2023-11-18T22:03:08;5.70;;;4.90;;
17171;SDS011;8701;50.150;8.756;2023-11-18T22:07:10;6.70;;;5.00;;
17171;SDS011;8701;50.150;8.756;2023-11-18T22:11:12;7.80;;;5.50;;
17171;SDS011;8701;50.150;8.756;2023-11-18T22:15:19;7.30;;;5.40;;
17171;SDS011;8701;50.150;8.756;2023-11-18T22:19:23;6.80;;;5.00;;
17171;SDS011;8701;50.150;8.756;2023-11-18T22:23:28;7.90;;;5.37;;
17171;SDS011;8701;50.150;8.756;2023-11-18T22:27:30;7.30;;;5.47;;
17171;SDS011;8701;50.150;8.756;2023-11-18T22:31:34;9.80;;;5.77;;
17171;SDS011;8701;50.150;8.756;2023-11-18T22:35:38;6.90;;;4.50;;
17171;SDS011;8701;50.150;8.756;2023-11-18T22:39:40;6.17;;;5.57;;
17171;SDS011;8701;50.150;8.756;2023-11-18T22:43:43;5.37;;;4.87;;
17171;SDS011;8701;50.150;8.756;2023-11-18T22:47:45;6.87;;;5.70;;
17171;SDS011;8701;50.150;8.756;2023-11-18T22:51:51;9.70;;;5.20;;
17171;SDS011;8701;50.150;8.756;2023-11-18T22:55:55;6.83;;;5.57;;
17171;SDS011;8701;50.150;8.756;2023-11-18T22:59:57;5.90;;;4.90;;
17171;SDS011;8701;50.150;8.756;2023-11-18T23:04:00;6.07;;;5.47;;
17171;SDS011;8701;50.150;8.756;2023-11-18T23:08:03;7.43;;;4.80;;
17171;SDS011;8701;50.150;8.756;2023-11-18T23:12:08;8.07;;;5.17;;
17171;SDS011;8701;50.150;8.756;2023-11-18T23:16:11;5.93;;;4.60;;
17171;SDS011;8701;50.150;8.756;2023-11-18T23:20:13;7.53;;;4.80;;
17171;SDS011;8701;50.150;8.756;2023-11-18T23:24:17;6.07;;;4.70;;
17171;SDS011;8701;50.150;8.756;2023-11-18T23:28:21;7.57;;;4.87;;
17171;SDS011;8701;50.150;8.756;2023-11-18T23:32:23;4.00;;;3.60;;
17171;SDS011;8701;50.150;8.756;2023-11-18T23:36:26;8.37;;;4.20;;
17171;SDS011;8701;50.150;8.756;2023-11-18T23:40:30;5.30;;;4.30;;
17171;SDS011;8701;50.150;8.756;2023-11-18T23:44:33;5.70;;;4.80;;
17171;SDS011;8701;50.150;8.756;2023-11-18T23:48:36;4.80;;;4.40;;
17171;SDS011;8701;50.150;8.756;2023-11-18T23:52:39;5.47;;;4.70;;
17171;SDS011;8701;50.150;8.756;2023-11-18T23:56:44;4.90;;;4.50;;
